Airfield :
LOGIN :

Register | Disclaimer

   EN    FR    IT 

 










Legend :    VFR   Marginal VFR   IFR   Intensive IFR   Very Intensive IFR
Visi :
Ceiling :
>= 8 km
>= 3000ft
5 to 8 km
1000 to 3000 ft
1500m to 5 km
500 to 1000 ft
800 to 1500m
200 to 500 ft
< 800m
< 200 ft
Symbols :   Thunderstorms  Fog  Heavy snow  Heavy precipitations  Wind > 20 kt
SIGMETs :     Misc.  Thunderstorms  Icing  Turbulence  Mountain Waves  Volcanic Ashes






- Airport Elevation : 782 ft
- IATA code : BGY


LIME - Orio al Serio International - Bergamo

CURRENT METAR :
  • 020220Z 02005KT 9999 BKN085 04/02 Q1018 NOSIG

EXPIRED METARs :
  • 020150Z 02003KT 9999 BKN085 04/02 Q1018 NOSIG
  • 020120Z 01005KT 9999 BKN085 04/02 Q1018 NOSIG
  • 020050Z 01005KT 9999 BKN085 04/02 Q1018 NOSIG
  • 020020Z 01005KT 9999 BKN085 04/02 Q1018 NOSIG
  • 012350Z 01005KT 9999 BKN080 04/02 Q1018 NOSIG

TAF TAF LIME
Valid from the 02 at 00:00 until the 03 at 00:00 UTC


012300Z 0200/0224 VRB05KT 9999 BKN060
TEMPO 0200/0207 2000 BR
BECMG 0216/0218 4000 -DZ BR BKN014



MET'MAP, your aeronautical weather chart ! - Copyright ORBIFLY December 2007 - Disclaimer

ORBIFLY MET'MAP TEAM :

Programming & Development : Alexandra Zaïnal
Original concept : Baudouin d'Aumeries
Technical & hardware support : Manuel Goepfert
Assistance : Marc-Olivier Méhu




SOURCES & CREDITS :

   NOAA